Northpoint, Arkansas
Current Conditions -  °F | °C
As of 1:53 PM on Friday 31 Oct 2014 (Local Time) from KLIT Reporting Station
Scattered Clouds Scattered Clouds  
Wind Chill: 64°   Ceiling: Unl
Heat Index: 64°   Visibility: 10mi
Dew Point: 38°   Wind: 17mph
Humidity: 38%   Direction: 340°NNW
Pressure: 30.21"   Gusts: 25mph
Location:  34.8869°N, 92.5324°W
Report Text: KLIT 311853Z 34015G22KT 10SM SCT048 18/03 A3021 RMK AO2 SLP230 SCT048 V BKN T01780033
Loading
Personal Weather Stations






























Interactive Weather Map
Tropical Storm Tracking
New forecast layout! Learn more

10-Day Weather Forecast

Advertisements
Track Severe Weather on mobile